Time;durP1;ratioP1;P1;durP2;ratioP2;P2;SDS_P1;SDS_P2;PMS_P1;PMS_P2;Temp;Humidity;BMP_temperature;BMP_pressure;BME280_temperature;BME280_humidity;BME280_pressure;Samples;Min_cycle;Max_cycle;Signal;HPM_P1;HPM_P2
2023/07/24 00:02:13;;;;;;;6.30;4.20;;;26.30;65.80;;;;;;4973600;28;20447;-80
2023/07/24 00:04:41;;;;;;;4.27;3.97;;;26.20;65.90;;;;;;4970622;28;20426;-81
2023/07/24 00:07:10;;;;;;;4.90;4.17;;;26.20;66.00;;;;;;4974660;28;20420;-80
2023/07/24 00:09:39;;;;;;;4.60;4.20;;;26.20;65.80;;;;;;4976148;28;20469;-81
2023/07/24 00:12:08;;;;;;;4.63;4.23;;;26.20;65.90;;;;;;4980483;28;20439;-80
2023/07/24 00:14:36;;;;;;;4.43;4.03;;;26.20;65.80;;;;;;4978887;28;20454;-81
2023/07/24 00:17:04;;;;;;;4.77;4.37;;;26.20;65.70;;;;;;4974629;28;20430;-81
2023/07/24 00:19:32;;;;;;;4.90;4.40;;;26.20;65.80;;;;;;4980158;28;20452;-80
2023/07/24 00:22:00;;;;;;;4.17;3.87;;;26.10;65.80;;;;;;4980946;28;20431;-80
2023/07/24 00:24:30;;;;;;;7.00;4.40;;;26.10;65.90;;;;;;4981646;28;20446;-80
2023/07/24 00:26:59;;;;;;;4.63;3.90;;;26.10;65.90;;;;;;4981577;28;20413;-81
2023/07/24 00:29:27;;;;;;;5.70;4.50;;;26.00;65.90;;;;;;4981227;28;20451;-81
2023/07/24 00:31:54;;;;;;;4.30;4.00;;;26.00;65.80;;;;;;4980389;28;20495;-81
2023/07/24 00:34:23;;;;;;;4.30;4.00;;;26.00;65.90;;;;;;4982288;28;20454;-80
2023/07/24 00:36:51;;;;;;;4.60;4.30;;;26.00;65.80;;;;;;4981139;28;20421;-81
2023/07/24 00:39:19;;;;;;;4.60;4.17;;;26.00;65.90;;;;;;4980729;28;20446;-81
2023/07/24 00:41:49;;;;;;;4.30;3.97;;;25.90;66.00;;;;;;4982419;28;20505;-81
2023/07/24 00:44:19;;;;;;;3.97;3.77;;;25.90;65.90;;;;;;4981947;28;20454;-80
2023/07/24 00:46:47;;;;;;;4.13;3.83;;;25.90;65.70;;;;;;4981009;28;20460;-80
2023/07/24 00:49:15;;;;;;;4.93;4.40;;;25.90;65.90;;;;;;4981040;28;20513;-80
2023/07/24 00:51:44;;;;;;;4.33;4.03;;;25.80;65.80;;;;;;4981669;28;20445;-81
2023/07/24 00:54:12;;;;;;;3.90;3.60;;;25.80;65.80;;;;;;4981856;28;20473;-80
2023/07/24 00:56:40;;;;;;;4.57;4.20;;;25.80;65.90;;;;;;4983181;28;20424;-81
2023/07/24 00:59:09;;;;;;;4.27;3.80;;;25.80;65.90;;;;;;4981773;28;20442;-81
2023/07/24 01:01:38;;;;;;;3.50;3.30;;;25.80;65.80;;;;;;4982274;28;20466;-80
2023/07/24 01:04:06;;;;;;;4.27;3.97;;;25.80;65.70;;;;;;4981551;28;20462;-80
2023/07/24 01:06:34;;;;;;;3.83;3.63;;;25.80;65.80;;;;;;4982131;28;20504;-81
2023/07/24 01:09:02;;;;;;;4.37;4.07;;;25.70;65.70;;;;;;4981955;28;20474;-80
2023/07/24 01:11:42;;;;;;;4.03;3.73;;;25.70;65.70;;;;;;4973799;28;20442;-81
2023/07/24 01:14:15;;;;;;;8.10;4.03;;;25.70;65.80;;;;;;4981410;28;20417;-80
2023/07/24 01:16:43;;;;;;;3.67;3.47;;;25.70;65.80;;;;;;4981908;28;20460;-80
2023/07/24 01:19:13;;;;;;;3.93;3.63;;;25.70;65.90;;;;;;4980838;28;20447;-81
2023/07/24 01:21:46;;;;;;;4.00;3.70;;;25.70;65.80;;;;;;4979829;28;20450;-81
2023/07/24 01:24:19;;;;;;;8.87;3.60;;;25.70;65.60;;;;;;4979623;28;20428;-81
2023/07/24 01:26:48;;;;;;;3.97;3.67;;;25.70;65.70;;;;;;4979470;28;20413;-81
2023/07/24 01:29:17;;;;;;;3.90;3.60;;;25.70;65.70;;;;;;4978993;28;20857;-81
2023/07/24 01:31:44;;;;;;;3.97;3.60;;;25.70;65.70;;;;;;4977610;28;20446;-81
2023/07/24 01:34:12;;;;;;;3.60;3.40;;;25.70;66.30;;;;;;4977840;28;20421;-80
2023/07/24 01:36:40;;;;;;;3.20;3.00;;;25.60;65.60;;;;;;4978352;28;20496;-81
2023/07/24 01:39:08;;;;;;;4.40;4.00;;;25.60;65.60;;;;;;4977072;28;20499;-81
2023/07/24 01:41:36;;;;;;;3.73;3.53;;;25.60;65.50;;;;;;4977503;28;20521;-81
2023/07/24 01:44:06;;;;;;;3.60;3.40;;;25.60;65.40;;;;;;4977950;28;20500;-81
2023/07/24 01:46:34;;;;;;;4.20;3.23;;;25.60;65.40;;;;;;4969368;28;20456;-80
2023/07/24 01:49:02;;;;;;;3.50;3.20;;;25.60;65.50;;;;;;4978042;28;20498;-81
2023/07/24 01:51:30;;;;;;;4.20;3.27;;;25.60;65.40;;;;;;4977714;28;20481;-80
2023/07/24 01:53:58;;;;;;;3.80;3.57;;;25.60;65.30;;;;;;4977393;28;20454;-81
2023/07/24 01:56:27;;;;;;;3.60;3.30;;;25.60;65.40;;;;;;4976855;28;20501;-81
2023/07/24 01:58:55;;;;;;;3.63;3.40;;;25.60;65.10;;;;;;4976698;28;20956;-81
2023/07/24 02:01:24;;;;;;;3.63;3.40;;;25.50;65.10;;;;;;4977959;28;20443;-81
2023/07/24 02:03:52;;;;;;;3.40;3.20;;;25.50;65.20;;;;;;4978677;28;20413;-80
2023/07/24 02:06:21;;;;;;;3.73;3.43;;;25.50;65.10;;;;;;4978365;28;20423;-80
2023/07/24 02:08:51;;;;;;;3.27;3.07;;;25.50;65.00;;;;;;4978719;28;20474;-80
2023/07/24 02:11:19;;;;;;;3.23;3.03;;;25.50;65.10;;;;;;4978325;28;20421;-81
2023/07/24 02:13:47;;;;;;;4.50;3.27;;;25.50;65.00;;;;;;4976698;28;20471;-81
2023/07/24 02:16:15;;;;;;;4.53;3.50;;;25.50;65.00;;;;;;4977864;28;20428;-81
2023/07/24 02:18:45;;;;;;;3.60;3.30;;;25.50;65.00;;;;;;4977884;28;20436;-81
2023/07/24 02:21:13;;;;;;;3.83;3.27;;;25.50;64.90;;;;;;4978666;28;20437;-80
2023/07/24 02:23:41;;;;;;;3.50;3.20;;;25.50;64.90;;;;;;4979281;28;20413;-80
2023/07/24 02:26:08;;;;;;;3.23;3.00;;;25.50;65.00;;;;;;4978497;28;20417;-80
2023/07/24 02:28:36;;;;;;;4.00;3.60;;;25.50;64.80;;;;;;4969789;28;21112;-80
2023/07/24 02:31:04;;;;;;;3.63;3.40;;;25.50;64.70;;;;;;4976963;28;20971;-81
2023/07/24 02:33:32;;;;;;;3.70;3.40;;;25.50;64.80;;;;;;4978261;28;20451;-81
2023/07/24 02:36:02;;;;;;;3.30;3.10;;;25.50;64.70;;;;;;4979944;28;20447;-81
2023/07/24 02:38:30;;;;;;;3.30;3.10;;;25.40;64.50;;;;;;4982305;28;20478;-80
2023/07/24 02:40:58;;;;;;;3.50;3.30;;;25.40;64.60;;;;;;4982095;28;20456;-80
2023/07/24 02:43:26;;;;;;;4.33;3.50;;;25.40;64.30;;;;;;4982111;28;20450;-80
2023/07/24 02:45:54;;;;;;;3.70;3.50;;;25.40;64.50;;;;;;4982057;28;20446;-80
2023/07/24 02:48:22;;;;;;;3.70;3.40;;;25.40;64.40;;;;;;4986512;28;20470;-80
2023/07/24 02:50:50;;;;;;;3.30;3.10;;;25.40;64.30;;;;;;4989559;28;20455;-80
2023/07/24 02:53:19;;;;;;;3.10;2.90;;;25.40;64.30;;;;;;4981517;28;20459;-80
2023/07/24 02:55:46;;;;;;;3.37;3.17;;;25.30;64.20;;;;;;4981410;28;20864;-80
2023/07/24 02:58:14;;;;;;;3.67;3.47;;;25.30;64.20;;;;;;4981644;28;20476;-81
2023/07/24 03:00:42;;;;;;;3.30;3.10;;;25.30;64.90;;;;;;4979761;28;20492;-81
2023/07/24 03:03:10;;;;;;;3.33;3.13;;;25.30;64.20;;;;;;4981957;28;20520;-81
2023/07/24 03:05:38;;;;;;;3.57;3.27;;;25.30;64.20;;;;;;4978958;28;20454;-80
2023/07/24 03:08:06;;;;;;;3.50;3.00;;;25.30;64.10;;;;;;4981081;28;20462;-81
2023/07/24 03:10:36;;;;;;;3.50;3.30;;;25.20;64.20;;;;;;4981762;28;20511;-81
2023/07/24 03:13:04;;;;;;;5.17;3.57;;;25.20;64.20;;;;;;4983218;28;20433;-81
2023/07/24 03:15:31;;;;;;;3.00;2.90;;;25.20;64.10;;;;;;4982777;28;20453;-80
2023/07/24 03:18:00;;;;;;;3.53;3.27;;;25.20;64.20;;;;;;4982775;28;20436;-80
2023/07/24 03:20:28;;;;;;;7.20;3.60;;;25.20;64.30;;;;;;4982489;28;20413;-80
2023/07/24 03:22:55;;;;;;;3.80;3.50;;;25.20;64.30;;;;;;4982008;28;20454;-81
2023/07/24 03:25:24;;;;;;;3.33;3.13;;;25.20;64.20;;;;;;4983040;28;20960;-81
2023/07/24 03:27:53;;;;;;;3.70;3.50;;;25.20;64.40;;;;;;4982619;28;20441;-81
2023/07/24 03:30:22;;;;;;;3.97;3.67;;;25.10;64.30;;;;;;4981932;28;20913;-81
2023/07/24 03:32:50;;;;;;;3.90;3.60;;;25.10;64.40;;;;;;4981871;28;20525;-81
2023/07/24 03:35:19;;;;;;;4.13;3.70;;;25.10;64.30;;;;;;4981367;28;20450;-81
2023/07/24 03:37:47;;;;;;;4.10;3.80;;;25.10;64.30;;;;;;4980475;28;20488;-81
2023/07/24 03:40:16;;;;;;;7.30;3.93;;;25.10;64.30;;;;;;4979585;28;20501;-81
2023/07/24 03:42:44;;;;;;;5.57;3.90;;;25.10;64.30;;;;;;4973226;28;20454;-81
2023/07/24 03:45:13;;;;;;;4.00;3.70;;;25.10;64.30;;;;;;4981131;28;20455;-80
2023/07/24 03:47:41;;;;;;;3.70;3.50;;;25.10;64.30;;;;;;4979808;28;20425;-80
2023/07/24 03:50:10;;;;;;;4.03;3.73;;;25.10;64.50;;;;;;4979459;28;20561;-80
2023/07/24 03:52:38;;;;;;;5.27;3.90;;;25.10;64.30;;;;;;4972490;28;20464;-81
2023/07/24 03:55:07;;;;;;;3.80;3.50;;;25.00;64.30;;;;;;4979914;28;20416;-80
2023/07/24 03:57:35;;;;;;;5.60;3.87;;;25.00;64.40;;;;;;4979338;28;20535;-80
2023/07/24 04:00:04;;;;;;;4.03;3.73;;;25.00;64.30;;;;;;4974134;28;20425;-80
2023/07/24 04:02:33;;;;;;;3.60;3.40;;;25.00;64.20;;;;;;4978894;28;20497;-80
2023/07/24 04:05:01;;;;;;;3.53;3.30;;;25.10;64.30;;;;;;4977797;28;20450;-80
2023/07/24 04:07:29;;;;;;;3.83;3.53;;;25.10;64.40;;;;;;4980079;28;20472;-80
2023/07/24 04:09:57;;;;;;;3.90;3.60;;;25.10;64.10;;;;;;4980871;28;20471;-80
2023/07/24 04:12:25;;;;;;;4.40;3.53;;;25.10;64.20;;;;;;4980360;28;20421;-81
2023/07/24 04:14:53;;;;;;;3.50;3.20;;;25.10;64.20;;;;;;4976043;28;20483;-80
2023/07/24 04:17:21;;;;;;;2.80;2.70;;;25.10;64.10;;;;;;4973517;28;20480;-81
2023/07/24 04:19:51;;;;;;;3.23;3.03;;;25.10;64.00;;;;;;4972026;28;20504;-81
2023/07/24 04:22:18;;;;;;;3.53;3.33;;;25.10;64.00;;;;;;4980543;28;20462;-81
2023/07/24 04:24:46;;;;;;;3.60;3.30;;;25.10;63.90;;;;;;4979547;28;20442;-81
2023/07/24 04:27:14;;;;;;;3.60;3.40;;;25.10;63.90;;;;;;4975104;28;20889;-80
2023/07/24 04:29:43;;;;;;;3.37;3.17;;;25.10;63.90;;;;;;4974233;28;20504;-80
2023/07/24 04:32:10;;;;;;;4.07;3.67;;;25.10;63.90;;;;;;4973821;28;20533;-80
2023/07/24 04:34:38;;;;;;;3.40;3.10;;;25.10;63.90;;;;;;4971164;28;20490;-80
2023/07/24 04:37:08;;;;;;;3.50;3.30;;;25.20;63.70;;;;;;4973972;28;20470;-80
2023/07/24 04:39:36;;;;;;;3.53;3.23;;;25.20;63.80;;;;;;4973799;28;20454;-80
2023/07/24 04:42:05;;;;;;;3.40;3.10;;;25.20;63.80;;;;;;4974050;28;20534;-80
2023/07/24 04:44:33;;;;;;;3.10;2.90;;;25.20;63.60;;;;;;4973595;28;20446;-80
2023/07/24 04:47:01;;;;;;;3.03;2.93;;;25.20;63.50;;;;;;4974257;28;20433;-80
2023/07/24 04:49:30;;;;;;;4.37;3.23;;;25.20;63.20;;;;;;4973757;28;20453;-80
2023/07/24 04:51:58;;;;;;;3.90;3.60;;;25.20;63.40;;;;;;4967788;28;20485;-80
2023/07/24 04:54:27;;;;;;;3.07;2.77;;;25.20;63.50;;;;;;4974362;28;20446;-80
2023/07/24 04:56:55;;;;;;;3.30;3.10;;;25.10;63.30;;;;;;4973746;28;20449;-80
2023/07/24 04:59:24;;;;;;;3.80;3.50;;;25.20;63.40;;;;;;4973736;28;20432;-80
2023/07/24 05:01:52;;;;;;;3.40;3.17;;;25.20;63.20;;;;;;4966123;28;20432;-80
2023/07/24 05:04:20;;;;;;;3.13;2.93;;;25.20;63.20;;;;;;4973668;28;20444;-80
2023/07/24 05:06:49;;;;;;;3.50;3.30;;;25.20;63.10;;;;;;4974399;28;20425;-80
2023/07/24 05:09:16;;;;;;;3.93;3.37;;;25.20;63.10;;;;;;4969591;28;20464;-81
2023/07/24 05:11:46;;;;;;;3.97;3.67;;;25.20;63.20;;;;;;4973990;28;20477;-80
2023/07/24 05:14:14;;;;;;;3.57;3.37;;;25.20;63.10;;;;;;4973550;28;20477;-81
2023/07/24 05:16:42;;;;;;;3.23;3.03;;;25.20;63.10;;;;;;4973443;28;20458;-80
2023/07/24 05:19:10;;;;;;;3.83;3.10;;;25.20;63.00;;;;;;4973729;28;20538;-80
2023/07/24 05:21:38;;;;;;;4.63;3.23;;;25.20;63.00;;;;;;4976221;28;20469;-81
2023/07/24 05:24:06;;;;;;;3.57;3.27;;;25.20;63.00;;;;;;4978059;28;20454;-81
2023/07/24 05:26:34;;;;;;;3.20;3.00;;;25.20;62.80;;;;;;4976573;28;20861;-81
2023/07/24 05:29:03;;;;;;;3.03;2.83;;;25.20;62.90;;;;;;4974088;28;20466;-81
2023/07/24 05:31:31;;;;;;;3.20;3.00;;;25.30;62.80;;;;;;4975277;28;20445;-80
2023/07/24 05:34:00;;;;;;;3.30;3.10;;;25.30;62.50;;;;;;4974989;28;20545;-80
2023/07/24 05:36:28;;;;;;;3.17;2.97;;;25.30;62.70;;;;;;4974999;28;20504;-80
2023/07/24 05:38:57;;;;;;;3.27;3.07;;;25.30;62.70;;;;;;4965952;28;20483;-80
2023/07/24 05:41:25;;;;;;;4.20;3.60;;;25.30;62.50;;;;;;4974530;28;20431;-80
2023/07/24 05:43:53;;;;;;;3.30;3.10;;;25.30;62.60;;;;;;4974048;28;20405;-80
2023/07/24 05:46:22;;;;;;;3.60;3.40;;;25.30;62.40;;;;;;4973307;28;20467;-80
2023/07/24 05:48:50;;;;;;;3.70;3.50;;;25.30;62.40;;;;;;4982539;28;20450;-80
2023/07/24 05:51:18;;;;;;;3.50;3.20;;;25.30;62.30;;;;;;4988851;28;20454;-78
2023/07/24 05:53:46;;;;;;;3.47;3.17;;;25.20;62.30;;;;;;4990436;28;20409;-79
2023/07/24 05:56:14;;;;;;;3.40;3.20;;;25.30;62.10;;;;;;4990239;28;20435;-80
2023/07/24 05:58:42;;;;;;;3.50;3.30;;;25.30;62.40;;;;;;4983267;28;20468;-79
2023/07/24 06:01:10;;;;;;;3.47;3.27;;;25.30;62.10;;;;;;4988920;28;20468;-80
2023/07/24 06:03:40;;;;;;;3.50;3.30;;;25.30;62.20;;;;;;4989355;28;20448;-81
2023/07/24 06:06:07;;;;;;;3.40;3.10;;;25.30;61.90;;;;;;4988994;28;20879;-81
2023/07/24 06:08:35;;;;;;;3.93;3.33;;;25.40;62.20;;;;;;4980288;28;20473;-81
2023/07/24 06:11:03;;;;;;;3.20;3.00;;;25.40;62.50;;;;;;4980629;28;20474;-81
2023/07/24 06:13:31;;;;;;;3.90;3.43;;;25.40;61.90;;;;;;4978730;28;20516;-81
2023/07/24 06:15:59;;;;;;;3.60;3.37;;;25.40;61.80;;;;;;4979521;28;20446;-78
2023/07/24 06:18:27;;;;;;;3.20;3.00;;;25.40;61.80;;;;;;4979891;28;20468;-81
2023/07/24 06:20:56;;;;;;;3.67;3.47;;;25.40;61.70;;;;;;4979735;28;20417;-81
2023/07/24 06:23:25;;;;;;;3.67;3.40;;;25.40;61.60;;;;;;4979057;28;20493;-80
2023/07/24 06:25:53;;;;;;;3.40;3.20;;;25.40;62.60;;;;;;4977847;28;20405;-80
2023/07/24 06:28:21;;;;;;;3.90;3.67;;;25.40;61.70;;;;;;4977441;28;20465;-80
2023/07/24 06:30:49;;;;;;;3.20;3.00;;;25.40;61.50;;;;;;4977954;28;20478;-80
2023/07/24 06:33:17;;;;;;;3.20;3.03;;;25.40;61.60;;;;;;4980356;28;20454;-81
2023/07/24 06:35:44;;;;;;;3.50;3.30;;;25.40;61.40;;;;;;4980712;28;20438;-81
2023/07/24 06:38:14;;;;;;;2.70;2.60;;;25.30;61.60;;;;;;4981729;28;20448;-81
2023/07/24 06:40:42;;;;;;;3.93;3.70;;;25.40;61.60;;;;;;4983123;28;20470;-81
2023/07/24 06:43:10;;;;;;;3.27;3.07;;;25.30;61.30;;;;;;4986680;28;20442;-81
2023/07/24 06:45:38;;;;;;;3.23;3.03;;;25.40;61.60;;;;;;4970688;28;20479;-81
2023/07/24 06:48:06;;;;;;;3.47;3.17;;;25.40;61.40;;;;;;4975575;28;20485;-80
2023/07/24 06:50:35;;;;;;;3.10;2.90;;;25.40;61.20;;;;;;4977156;28;20484;-81
2023/07/24 06:53:03;;;;;;;3.50;3.20;;;25.40;61.20;;;;;;4968065;28;20488;-81
2023/07/24 06:55:32;;;;;;;3.47;3.27;;;25.50;61.00;;;;;;4977073;28;20529;-81
2023/07/24 06:58:01;;;;;;;2.83;2.73;;;25.50;61.10;;;;;;4975074;28;21050;-81
2023/07/24 07:00:29;;;;;;;3.30;3.13;;;25.40;60.90;;;;;;4973218;28;20463;-81
2023/07/24 07:02:57;;;;;;;3.57;3.27;;;25.50;61.10;;;;;;4974792;28;20421;-81
2023/07/24 07:05:25;;;;;;;3.33;3.13;;;25.50;60.90;;;;;;4969698;28;20439;-81
2023/07/24 07:07:52;;;;;;;2.97;2.77;;;25.60;60.50;;;;;;4977535;28;20468;-81
2023/07/24 07:10:20;;;;;;;3.70;3.50;;;25.60;60.70;;;;;;4968580;28;20424;-81
2023/07/24 07:12:50;;;;;;;2.97;2.83;;;25.60;60.40;;;;;;4971873;28;20569;-82
2023/07/24 07:15:18;;;;;;;3.40;3.20;;;25.60;60.40;;;;;;4967858;28;20474;-78
2023/07/24 07:17:47;;;;;;;3.47;3.27;;;25.60;60.10;;;;;;4976294;28;20565;-79
2023/07/24 07:20:15;;;;;;;3.53;3.33;;;25.70;60.30;;;;;;4972331;28;20475;-79
2023/07/24 07:22:43;;;;;;;3.60;3.33;;;25.70;60.00;;;;;;4978660;28;20413;-80
2023/07/24 07:25:11;;;;;;;4.80;3.30;;;25.80;60.00;;;;;;4980949;28;20442;-80
2023/07/24 07:27:40;;;;;;;5.60;3.43;;;25.90;59.90;;;;;;4972668;28;20506;-81
2023/07/24 07:30:10;;;;;;;3.43;3.23;;;25.90;59.50;;;;;;4975138;28;20453;-80
2023/07/24 07:32:38;;;;;;;3.50;3.30;;;25.90;59.40;;;;;;4981221;28;20535;-80
2023/07/24 07:35:07;;;;;;;3.60;3.40;;;26.00;59.50;;;;;;4973125;28;20450;-81
2023/07/24 07:37:35;;;;;;;3.07;2.90;;;26.00;59.60;;;;;;4975009;28;20564;-80
2023/07/24 07:40:04;;;;;;;3.50;3.30;;;26.10;59.50;;;;;;4983822;28;20442;-80
2023/07/24 07:42:33;;;;;;;5.63;3.20;;;26.20;59.30;;;;;;4982193;28;20446;-80
2023/07/24 07:45:01;;;;;;;5.10;3.07;;;26.40;59.40;;;;;;4983252;28;20517;-80
2023/07/24 07:47:30;;;;;;;3.10;2.90;;;26.50;59.10;;;;;;4980193;28;20553;-80
2023/07/24 07:49:59;;;;;;;3.00;2.90;;;26.50;59.00;;;;;;4981344;28;20458;-81
2023/07/24 07:52:27;;;;;;;3.40;3.20;;;26.60;58.90;;;;;;4978821;28;20462;-80
2023/07/24 07:54:55;;;;;;;3.17;3.03;;;26.60;59.00;;;;;;4974787;28;20484;-80
2023/07/24 07:57:27;;;;;;;3.90;3.70;;;26.60;58.90;;;;;;4972276;28;20470;-80
2023/07/24 07:59:55;;;;;;;4.40;3.90;;;26.60;59.00;;;;;;4979831;28;20508;-80
2023/07/24 08:02:23;;;;;;;3.30;3.10;;;26.60;58.90;;;;;;4980158;28;20459;-80
2023/07/24 08:04:53;;;;;;;3.80;3.50;;;26.60;59.00;;;;;;4977748;28;20454;-79
2023/07/24 08:07:21;;;;;;;3.53;3.33;;;26.60;59.10;;;;;;4974499;28;20466;-79
2023/07/24 08:09:49;;;;;;;3.93;3.60;;;26.60;59.00;;;;;;4969880;28;20534;-80
2023/07/24 08:12:17;;;;;;;3.80;3.60;;;26.70;59.20;;;;;;4976495;28;20517;-79
2023/07/24 08:14:45;;;;;;;3.60;3.30;;;26.70;59.00;;;;;;4978754;28;20526;-80
2023/07/24 08:17:13;;;;;;;3.50;3.30;;;26.80;59.10;;;;;;4979746;28;20444;-79
2023/07/24 08:19:41;;;;;;;3.60;3.40;;;26.80;58.80;;;;;;4979120;28;20991;-81
2023/07/24 08:22:10;;;;;;;4.00;3.40;;;26.80;59.00;;;;;;4980104;28;20449;-80
2023/07/24 08:24:38;;;;;;;3.93;3.70;;;26.90;59.00;;;;;;4977825;28;20458;-81
2023/07/24 08:27:07;;;;;;;3.57;3.37;;;26.90;59.10;;;;;;4979191;28;20553;-81
2023/07/24 08:29:35;;;;;;;4.10;3.80;;;26.90;59.10;;;;;;4979342;28;20496;-80
2023/07/24 08:32:04;;;;;;;3.93;3.73;;;27.00;59.10;;;;;;4980038;28;20434;-80
2023/07/24 08:34:32;;;;;;;4.30;3.90;;;27.10;58.90;;;;;;4981222;28;20442;-80
2023/07/24 08:36:59;;;;;;;3.93;3.73;;;27.10;58.80;;;;;;4975168;28;20473;-79
2023/07/24 08:39:28;;;;;;;4.50;4.20;;;27.20;58.80;;;;;;4976321;28;20465;-79
2023/07/24 08:41:57;;;;;;;4.30;4.00;;;27.20;58.50;;;;;;4979210;28;20873;-80
2023/07/24 08:44:25;;;;;;;3.80;3.60;;;27.20;58.70;;;;;;4977889;28;20729;-80
2023/07/24 08:46:53;;;;;;;4.70;4.17;;;27.20;58.80;;;;;;4973364;28;20450;-79
2023/07/24 08:49:21;;;;;;;4.90;4.20;;;27.20;58.60;;;;;;4972110;28;20417;-81
2023/07/24 08:51:49;;;;;;;4.50;4.10;;;27.20;58.70;;;;;;4978419;28;20453;-81
2023/07/24 08:54:17;;;;;;;5.53;4.30;;;27.10;58.70;;;;;;4970224;28;20520;-80
2023/07/24 08:56:50;;;;;;;8.50;4.67;;;27.10;59.00;;;;;;4975931;28;20421;-81
2023/07/24 08:59:17;;;;;;;8.00;4.30;;;27.20;59.20;;;;;;4975894;28;20432;-81
2023/07/24 09:01:46;;;;;;;6.03;4.40;;;27.20;59.00;;;;;;4976554;28;20504;-81
2023/07/24 09:04:13;;;;;;;24.03;9.40;;;27.30;58.90;;;;;;4976251;28;20534;-79
2023/07/24 09:06:41;;;;;;;22.03;9.53;;;27.00;59.30;;;;;;4978135;28;20447;-79
2023/07/24 09:09:16;;;;;;;24.30;10.10;;;26.90;61.30;;;;;;4966952;28;20461;-79
2023/07/24 09:11:49;;;;;;;10.43;8.73;;;26.90;62.00;;;;;;4970821;28;20451;-80
2023/07/24 09:14:24;;;;;;;15.47;10.20;;;26.60;62.60;;;;;;4976613;28;20474;-80
2023/07/24 09:17:03;;;;;;;12.17;9.87;;;26.40;62.70;;;;;;4971910;28;20462;-79
2023/07/24 09:19:31;;;;;;;10.90;9.83;;;26.30;63.60;;;;;;4967351;28;20510;-80
2023/07/24 09:22:09;;;;;;;11.90;8.23;;;26.20;64.30;;;;;;4976910;28;20425;-79
2023/07/24 09:24:37;;;;;;;10.40;9.30;;;26.00;64.50;;;;;;4972297;28;20451;-80
2023/07/24 09:27:08;;;;;;;9.20;8.27;;;25.90;64.40;;;;;;4974685;28;20473;-78
2023/07/24 09:29:36;;;;;;;11.40;9.53;;;25.70;64.90;;;;;;4968237;28;20457;-79
2023/07/24 09:32:04;;;;;;;8.90;7.77;;;25.60;66.10;;;;;;4967452;28;20519;-80
2023/07/24 09:34:32;;;;;;;8.97;8.13;;;25.60;65.80;;;;;;4972688;28;20510;-80
2023/07/24 09:37:01;;;;;;;10.00;8.40;;;25.60;66.90;;;;;;4975894;28;20945;-80
2023/07/24 09:39:28;;;;;;;10.30;7.50;;;25.60;66.90;;;;;;4975025;28;20462;-79
2023/07/24 09:42:03;;;;;;;9.80;8.07;;;25.90;67.00;;;;;;4974230;28;20525;-80
2023/07/24 09:44:33;;;;;;;10.00;7.87;;;26.20;67.60;;;;;;4974168;28;20528;-80
2023/07/24 09:47:01;;;;;;;8.90;7.30;;;26.70;66.20;;;;;;4976241;28;20447;-80
2023/07/24 09:49:49;;;;;;;9.70;6.93;;;26.90;65.50;;;;;;4975211;28;20927;-80
2023/07/24 09:52:17;;;;;;;8.57;7.30;;;26.80;65.10;;;;;;4976312;28;20514;-80
2023/07/24 09:54:49;;;;;;;7.43;6.83;;;26.70;63.70;;;;;;4978334;28;20481;-81
2023/07/24 09:57:17;;;;;;;7.33;6.20;;;26.70;64.30;;;;;;4979770;28;20493;-79
2023/07/24 09:59:50;;;;;;;6.13;5.53;;;26.80;62.90;;;;;;4976040;28;20442;-79
2023/07/24 10:02:18;;;;;;;8.97;6.50;;;26.80;63.60;;;;;;4977303;28;20438;-80
2023/07/24 10:04:46;;;;;;;8.23;6.43;;;27.20;64.10;;;;;;4976268;28;20438;-81
2023/07/24 10:07:15;;;;;;;6.73;5.47;;;27.30;61.20;;;;;;4971454;28;20497;-80
2023/07/24 10:09:43;;;;;;;6.40;5.30;;;27.60;62.30;;;;;;4977065;28;20417;-80
2023/07/24 10:12:12;;;;;;;6.33;5.80;;;27.70;60.60;;;;;;4977770;28;20438;-80
2023/07/24 10:14:40;;;;;;;5.73;5.23;;;27.80;60.40;;;;;;4973675;28;20546;-80
2023/07/24 10:17:09;;;;;;;5.63;5.13;;;28.00;60.50;;;;;;4979624;28;20593;-80
2023/07/24 10:19:39;;;;;;;8.93;5.90;;;28.10;58.40;;;;;;4981241;28;20469;-80
2023/07/24 10:22:08;;;;;;;6.20;5.70;;;28.20;57.90;;;;;;4978995;28;20473;-80
2023/07/24 10:24:36;;;;;;;9.83;8.80;;;28.30;58.40;;;;;;4988906;28;20469;-82
2023/07/24 10:27:09;;;;;;;13.30;10.47;;;28.40;58.30;;;;;;4987241;28;20480;-80
2023/07/24 10:29:37;;;;;;;7.20;6.37;;;28.80;58.50;;;;;;4971214;28;20450;-79
2023/07/24 10:32:06;;;;;;;6.27;5.77;;;29.00;56.90;;;;;;4974879;28;20482;-77
2023/07/24 10:34:40;;;;;;;6.73;6.10;;;29.20;57.50;;;;;;4973177;28;20529;-78
2023/07/24 10:37:08;;;;;;;6.60;5.63;;;29.40;55.50;;;;;;4971564;28;20494;-78
2023/07/24 10:39:40;;;;;;;5.13;4.80;;;29.50;54.20;;;;;;4979972;28;21159;-78
2023/07/24 10:42:09;;;;;;;5.57;5.00;;;29.90;55.10;;;;;;4977901;28;20510;-79
2023/07/24 10:44:37;;;;;;;5.33;4.80;;;29.80;53.60;;;;;;4980139;28;20478;-79
2023/07/24 10:47:05;;;;;;;5.23;4.73;;;30.20;54.60;;;;;;4979685;28;20469;-80
2023/07/24 10:49:33;;;;;;;5.10;4.70;;;30.60;53.70;;;;;;4968499;28;20438;-78
2023/07/24 10:52:02;;;;;;;4.87;4.47;;;30.90;52.30;;;;;;4977025;28;20444;-79
2023/07/24 10:54:30;;;;;;;5.00;4.37;;;30.60;50.40;;;;;;4970424;28;20470;-79
2023/07/24 10:57:01;;;;;;;4.93;4.60;;;30.30;50.60;;;;;;4981477;28;20449;-79
2023/07/24 10:59:39;;;;;;;9.83;7.43;;;29.90;50.00;;;;;;4983473;28;20457;-79
2023/07/24 11:02:08;;;;;;;6.83;6.23;;;29.70;51.90;;;;;;4981937;28;20483;-78
2023/07/24 11:04:36;;;;;;;6.93;6.20;;;29.80;51.00;;;;;;4982714;28;20521;-79
2023/07/24 11:07:05;;;;;;;9.93;5.33;;;30.30;50.10;;;;;;4976809;28;21077;-79
2023/07/24 11:09:37;;;;;;;4.80;4.50;;;30.50;50.40;;;;;;4976196;28;20602;-79
2023/07/24 11:12:12;;;;;;;4.93;4.63;;;31.00;50.10;;;;;;4983431;28;20434;-79
2023/07/24 11:14:48;;;;;;;4.70;4.30;;;31.40;49.30;;;;;;4975334;28;20505;-80
2023/07/24 11:17:16;;;;;;;5.00;4.70;;;31.50;47.60;;;;;;4976268;28;20453;-79
2023/07/24 11:19:44;;;;;;;4.70;4.30;;;31.60;46.50;;;;;;4973666;28;20464;-79
2023/07/24 11:22:13;;;;;;;5.00;4.60;;;31.30;45.90;;;;;;4984017;28;20476;-79
2023/07/24 11:24:44;;;;;;;4.67;4.37;;;31.60;46.90;;;;;;4983607;28;20473;-79
2023/07/24 11:27:17;;;;;;;6.40;4.53;;;31.80;45.00;;;;;;4983582;28;20493;-79
2023/07/24 11:29:48;;;;;;;5.27;4.83;;;31.90;45.70;;;;;;4984581;28;20453;-80
2023/07/24 11:32:19;;;;;;;5.73;5.23;;;32.00;45.90;;;;;;4985291;28;20450;-79
2023/07/24 11:34:47;;;;;;;6.03;5.33;;;31.70;46.40;;;;;;4986424;28;20515;-80
2023/07/24 11:37:16;;;;;;;5.00;4.60;;;31.90;47.60;;;;;;4983336;28;20478;-79
2023/07/24 11:39:45;;;;;;;4.67;3.73;;;32.10;46.90;;;;;;4984761;28;20473;-79
2023/07/24 11:42:12;;;;;;;5.30;3.73;;;32.90;45.50;;;;;;4984664;28;20521;-79
2023/07/24 11:44:41;;;;;;;4.40;4.00;;;33.90;44.20;;;;;;4983780;28;20457;-79
2023/07/24 11:47:09;;;;;;;5.27;4.03;;;33.20;42.00;;;;;;4984573;28;20557;-79
2023/07/24 11:49:37;;;;;;;4.27;4.07;;;33.00;41.90;;;;;;4983908;28;20534;-80
2023/07/24 11:52:06;;;;;;;7.03;4.20;;;34.00;42.30;;;;;;4982260;28;20639;-79
2023/07/24 11:54:36;;;;;;;4.30;3.90;;;34.60;41.80;;;;;;4984710;28;20474;-80
2023/07/24 11:57:05;;;;;;;4.47;4.17;;;35.50;40.30;;;;;;4982956;28;20911;-79
2023/07/24 11:59:38;;;;;;;4.47;4.17;;;36.70;37.10;;;;;;4977727;28;20450;-80
2023/07/24 12:02:06;;;;;;;4.87;4.57;;;35.00;37.40;;;;;;4980907;28;20461;-80
2023/07/24 12:04:34;;;;;;;5.13;4.73;;;33.80;39.10;;;;;;4972819;28;20447;-79
2023/07/24 12:07:02;;;;;;;4.50;4.20;;;34.10;41.60;;;;;;4979207;28;20438;-80
2023/07/24 12:09:30;;;;;;;6.00;4.20;;;35.90;39.20;;;;;;4980034;28;20444;-80
2023/07/24 12:12:00;;;;;;;5.30;4.80;;;35.90;36.50;;;;;;4983275;28;20529;-79
2023/07/24 12:14:28;;;;;;;4.60;4.40;;;35.80;38.60;;;;;;4979479;28;20935;-80
2023/07/24 12:17:01;;;;;;;4.10;3.80;;;36.60;37.90;;;;;;4979738;28;20493;-80
2023/07/24 12:19:29;;;;;;;4.20;3.90;;;36.40;35.60;;;;;;4982109;28;20469;-79
2023/07/24 12:21:57;;;;;;;4.20;4.00;;;35.80;36.60;;;;;;4980293;28;20434;-82
2023/07/24 12:24:25;;;;;;;5.03;4.30;;;36.30;37.40;;;;;;4980697;28;20438;-81
2023/07/24 12:26:53;;;;;;;4.67;4.37;;;36.10;34.80;;;;;;4982544;28;20513;-79
2023/07/24 12:29:22;;;;;;;4.40;4.20;;;36.40;35.20;;;;;;4981716;28;20477;-80
2023/07/24 12:31:50;;;;;;;4.40;4.20;;;35.50;36.10;;;;;;4981601;28;20466;-80
2023/07/24 12:34:18;;;;;;;4.20;4.00;;;34.70;37.30;;;;;;4980344;28;20474;-81
2023/07/24 12:36:47;;;;;;;4.70;4.30;;;34.30;39.40;;;;;;4982377;28;20514;-81
2023/07/24 12:39:15;;;;;;;5.00;4.27;;;33.90;39.80;;;;;;4983906;28;20450;-80
2023/07/24 12:41:43;;;;;;;5.23;4.77;;;33.60;39.20;;;;;;4985799;28;20457;-80
2023/07/24 12:44:11;;;;;;;5.10;4.77;;;33.10;39.40;;;;;;4984066;28;20490;-80
2023/07/24 12:46:40;;;;;;;4.90;4.50;;;32.80;40.20;;;;;;4986346;28;20446;-80
2023/07/24 12:49:08;;;;;;;4.50;3.80;;;33.10;40.10;;;;;;4986285;28;20486;-80
2023/07/24 12:51:35;;;;;;;5.00;4.50;;;33.70;39.10;;;;;;4986025;28;20946;-80
2023/07/24 12:54:03;;;;;;;4.27;3.97;;;33.60;39.80;;;;;;4983067;28;20466;-79